createdAt,value
2022-09-23T00:02:06.702Z,5.78
2022-09-23T00:04:34.814Z,5.80
2022-09-23T00:07:02.804Z,5.93
2022-09-23T00:09:30.804Z,6.28
2022-09-23T00:12:00.808Z,5.55
2022-09-23T00:14:28.850Z,5.35
2022-09-23T00:16:56.880Z,5.32
2022-09-23T00:19:24.967Z,4.95
2022-09-23T00:21:53.233Z,5.72
2022-09-23T00:24:21.219Z,5.03
2022-09-23T00:26:49.207Z,5.13
2022-09-23T00:29:19.015Z,5.65
2022-09-23T00:31:47.860Z,4.97
2022-09-23T00:34:15.841Z,4.75
2022-09-23T00:36:44.682Z,5.38
2022-09-23T00:39:12.696Z,4.88
2022-09-23T00:41:41.563Z,4.90
2022-09-23T00:44:45.871Z,5.60
2022-09-23T00:47:22.225Z,5.40
2022-09-23T00:50:02.144Z,5.55
2022-09-23T00:52:32.747Z,5.05
2022-09-23T00:55:03.938Z,5.35
2022-09-23T00:57:32.752Z,5.30
2022-09-23T01:00:02.688Z,5.10
2022-09-23T01:02:31.714Z,4.68
2022-09-23T01:05:00.421Z,4.63
2022-09-23T01:07:28.487Z,5.20
2022-09-23T01:09:56.529Z,5.22
2022-09-23T01:12:44.443Z,3.85
2022-09-23T01:15:18.207Z,4.45
2022-09-23T01:17:53.325Z,4.90
2022-09-23T01:20:52.421Z,6.18
2022-09-23T01:23:59.837Z,4.82
2022-09-23T01:26:49.805Z,4.97
2022-09-23T01:29:50.073Z,4.05
2022-09-23T01:32:32.035Z,5.25
2022-09-23T01:35:08.749Z,4.80
2022-09-23T01:37:46.050Z,6.00
2022-09-23T01:40:21.206Z,5.50
2022-09-23T01:42:54.443Z,4.97
2022-09-23T01:45:30.102Z,5.10
2022-09-23T01:48:10.457Z,5.72
2022-09-23T01:50:59.518Z,5.57
2022-09-23T01:53:35.782Z,4.40
2022-09-23T01:56:09.143Z,5.28
2022-09-23T01:58:43.322Z,5.55
2022-09-23T02:01:16.968Z,5.38
2022-09-23T02:03:51.456Z,5.65
2022-09-23T02:06:24.800Z,5.18
2022-09-23T02:08:56.847Z,6.03
2022-09-23T02:11:25.323Z,6.05
2022-09-23T02:13:57.304Z,5.53
2022-09-23T02:16:32.032Z,5.82
2022-09-23T02:19:07.017Z,5.47
2022-09-23T02:21:38.419Z,5.50
2022-09-23T02:24:14.677Z,5.63
2022-09-23T02:26:49.399Z,5.57
2022-09-23T02:29:27.002Z,6.45
2022-09-23T02:32:18.065Z,5.55
2022-09-23T02:34:54.141Z,6.32
2022-09-23T02:37:29.060Z,6.72
2022-09-23T02:40:03.410Z,5.97
2022-09-23T02:42:40.535Z,5.93
2022-09-23T02:45:09.052Z,5.65
2022-09-23T02:47:40.176Z,5.78
2022-09-23T02:50:10.618Z,5.30
2022-09-23T02:52:39.173Z,6.43
2022-09-23T02:55:09.884Z,5.47
2022-09-23T02:57:37.954Z,6.75
2022-09-23T03:00:07.577Z,7.07
2022-09-23T03:02:56.074Z,6.65
2022-09-23T03:05:30.323Z,5.57
2022-09-23T03:08:13.331Z,5.88
2022-09-23T03:13:31.596Z,5.78
2022-09-23T03:16:10.638Z,5.25
2022-09-23T03:18:42.915Z,5.47
2022-09-23T03:21:18.423Z,6.00
2022-09-23T03:23:48.244Z,5.95
2022-09-23T03:26:23.539Z,5.90
2022-09-23T03:28:52.136Z,6.13
2022-09-23T03:31:20.436Z,6.15
2022-09-23T03:33:52.142Z,5.75
2022-09-23T03:36:45.444Z,6.47
2022-09-23T03:41:51.033Z,5.10
2022-09-23T03:44:19.681Z,5.22
2022-09-23T03:46:49.976Z,6.20
2022-09-23T03:49:27.425Z,5.38
2022-09-23T03:51:57.131Z,4.85
2022-09-23T03:54:25.668Z,5.20
2022-09-23T03:56:57.727Z,5.88
2022-09-23T03:59:26.165Z,5.20
2022-09-23T04:01:55.716Z,5.13
2022-09-23T04:04:23.858Z,5.13
2022-09-23T04:06:51.916Z,5.63
2022-09-23T04:09:21.898Z,5.68
2022-09-23T04:11:50.859Z,6.07
2022-09-23T04:14:19.929Z,5.55
2022-09-23T04:16:49.051Z,5.47
2022-09-23T04:19:17.595Z,5.93
2022-09-23T04:21:46.742Z,5.85
2022-09-23T04:24:15.368Z,6.07
2022-09-23T04:26:45.253Z,4.85
2022-09-23T04:29:13.360Z,5.50
2022-09-23T04:31:41.455Z,6.13
2022-09-23T04:34:10.345Z,4.78
2022-09-23T04:36:38.648Z,6.03
2022-09-23T04:39:06.961Z,5.22
2022-09-23T04:41:35.162Z,6.03
2022-09-23T04:44:05.555Z,5.43
2022-09-23T04:46:33.655Z,6.18
2022-09-23T04:49:01.818Z,6.32
2022-09-23T04:51:29.932Z,5.55
2022-09-23T04:53:57.972Z,5.90
2022-09-23T04:56:27.703Z,5.40
2022-09-23T04:58:57.376Z,5.95
2022-09-23T05:01:29.219Z,6.03
2022-09-23T05:04:02.579Z,6.47
2022-09-23T05:06:31.585Z,8.07
2022-09-23T05:09:00.586Z,12.35
2022-09-23T05:11:31.509Z,13.35
2022-09-23T05:14:00.143Z,13.32
2022-09-23T05:16:29.887Z,12.50
2022-09-23T05:18:58.179Z,11.48
2022-09-23T05:21:28.544Z,11.55
2022-09-23T05:24:00.460Z,9.40
2022-09-23T05:26:30.815Z,8.07
2022-09-23T05:28:59.681Z,8.23
2022-09-23T05:31:31.035Z,16.15
2022-09-23T05:34:00.618Z,26.02
2022-09-23T05:36:34.316Z,27.90
2022-09-23T05:39:06.140Z,23.73
2022-09-23T05:41:34.692Z,21.67
2022-09-23T05:44:03.398Z,16.80
2022-09-23T05:46:33.365Z,14.23
2022-09-23T05:49:03.458Z,10.90
2022-09-23T05:51:35.051Z,9.55
2022-09-23T05:54:04.380Z,8.68
2022-09-23T05:56:33.876Z,6.90
2022-09-23T05:59:03.198Z,7.60
2022-09-23T06:01:35.474Z,7.43
2022-09-23T06:04:05.569Z,7.13
2022-09-23T06:06:35.208Z,7.45
2022-09-23T06:09:04.133Z,8.02
2022-09-23T06:11:34.458Z,7.88
2022-09-23T06:14:02.995Z,7.13
2022-09-23T06:16:34.500Z,6.05
2022-09-23T06:19:06.595Z,6.57
2022-09-23T06:21:36.808Z,5.95
2022-09-23T06:24:05.820Z,5.35
2022-09-23T06:26:35.358Z,6.22
2022-09-23T06:29:04.325Z,6.53
2022-09-23T06:31:34.174Z,6.53
2022-09-23T06:34:10.721Z,6.45
2022-09-23T06:36:44.541Z,6.28
2022-09-23T06:39:14.334Z,6.20
2022-09-23T06:41:42.615Z,6.95
2022-09-23T06:44:10.794Z,6.72
2022-09-23T06:46:40.350Z,7.10
2022-09-23T06:49:08.431Z,6.43
2022-09-23T06:51:36.848Z,6.88
2022-09-23T06:54:04.985Z,7.07
2022-09-23T06:56:37.931Z,6.78
2022-09-23T06:59:07.138Z,6.53
2022-09-23T07:01:35.905Z,6.10
2022-09-23T07:04:07.845Z,6.28
2022-09-23T07:06:36.275Z,5.72
2022-09-23T07:09:04.863Z,5.53
2022-09-23T07:11:32.949Z,4.50
2022-09-23T07:14:01.069Z,5.10
2022-09-23T07:16:29.134Z,4.40
2022-09-23T07:18:57.286Z,4.45
2022-09-23T07:21:27.972Z,4.45
2022-09-23T07:23:58.232Z,4.82
2022-09-23T07:26:26.894Z,4.65
2022-09-23T07:28:56.595Z,5.50
2022-09-23T07:31:37.569Z,5.10
2022-09-23T07:34:07.616Z,4.82
2022-09-23T07:36:37.627Z,4.25
2022-09-23T07:39:05.961Z,4.63
2022-09-23T07:41:35.674Z,4.43
2022-09-23T07:44:06.335Z,4.03
2022-09-23T07:46:36.298Z,4.18
2022-09-23T07:49:05.474Z,4.68
2022-09-23T07:51:37.143Z,4.32
2022-09-23T07:54:08.030Z,4.53
2022-09-23T07:56:37.257Z,3.55
2022-09-23T07:59:05.477Z,3.63
2022-09-23T08:01:36.429Z,3.85
2022-09-23T08:04:06.770Z,4.38
2022-09-23T08:06:36.927Z,3.40
2022-09-23T08:09:05.144Z,3.95
2022-09-23T08:11:33.200Z,4.07
2022-09-23T08:14:01.416Z,3.92
2022-09-23T08:16:29.550Z,4.28
2022-09-23T08:18:57.706Z,4.03
2022-09-23T08:21:25.739Z,3.55
2022-09-23T08:23:55.232Z,4.00
2022-09-23T08:26:23.282Z,3.83
2022-09-23T08:28:53.996Z,4.50
2022-09-23T08:31:23.012Z,4.65
2022-09-23T08:33:55.866Z,4.03
2022-09-23T08:36:23.989Z,3.95
2022-09-23T08:38:52.074Z,4.43
2022-09-23T08:41:32.067Z,5.15
2022-09-23T08:44:06.795Z,5.03
2022-09-23T08:46:39.210Z,5.40
2022-09-23T08:49:08.399Z,5.32
2022-09-23T08:51:42.552Z,4.50
2022-09-23T08:54:12.369Z,5.28
2022-09-23T08:56:45.673Z,5.05
2022-09-23T08:59:19.789Z,5.28
2022-09-23T09:01:51.482Z,5.07
2022-09-23T09:04:24.154Z,5.83
2022-09-23T09:09:31.607Z,5.32
2022-09-23T09:12:08.616Z,5.10
2022-09-23T09:14:44.356Z,5.68
2022-09-23T09:17:18.003Z,5.60
2022-09-23T09:19:55.491Z,6.45
2022-09-23T09:22:39.100Z,5.57
2022-09-23T09:25:18.902Z,6.03
2022-09-23T09:27:49.108Z,5.80
2022-09-23T09:30:18.475Z,6.53
2022-09-23T09:32:50.121Z,6.30
2022-09-23T09:35:25.188Z,5.65
2022-09-23T09:37:53.479Z,5.82
2022-09-23T09:40:21.781Z,5.85
2022-09-23T09:42:51.873Z,5.80
2022-09-23T09:45:33.370Z,5.07
2022-09-23T09:48:07.652Z,5.45
2022-09-23T09:50:49.600Z,5.07
2022-09-23T09:53:24.173Z,5.47
2022-09-23T09:56:05.254Z,5.78
2022-09-23T09:58:46.385Z,6.38
2022-09-23T10:01:25.894Z,5.13
2022-09-23T10:03:59.243Z,4.82
2022-09-23T10:06:29.507Z,4.80
2022-09-23T10:09:17.244Z,4.68
2022-09-23T10:12:04.881Z,5.03
2022-09-23T10:14:36.454Z,4.80
2022-09-23T10:17:06.578Z,4.65
2022-09-23T10:19:38.019Z,4.28
2022-09-23T10:22:18.241Z,4.13
2022-09-23T10:24:50.270Z,4.57
2022-09-23T10:27:29.146Z,4.60
2022-09-23T10:30:00.845Z,4.65
2022-09-23T10:32:33.888Z,4.43
2022-09-23T10:35:16.353Z,3.95
2022-09-23T10:37:48.466Z,3.92
2022-09-23T10:40:37.722Z,4.57
2022-09-23T10:43:46.066Z,4.03
2022-09-23T10:46:37.730Z,3.92
2022-09-23T10:49:22.849Z,4.70
2022-09-23T10:52:02.861Z,4.35
2022-09-23T10:54:41.363Z,4.50
2022-09-23T10:57:41.852Z,3.55
2022-09-23T11:00:22.709Z,4.13
2022-09-23T11:03:10.624Z,4.40
2022-09-23T11:05:47.611Z,3.80
2022-09-23T11:08:33.208Z,4.35
2022-09-23T11:11:18.678Z,4.68
2022-09-23T11:14:00.464Z,4.25
2022-09-23T11:16:42.093Z,5.00
2022-09-23T11:19:26.447Z,4.40
2022-09-23T11:22:14.171Z,3.97
2022-09-23T11:25:19.082Z,4.10
2022-09-23T11:28:09.910Z,4.70
2022-09-23T11:30:48.901Z,4.70
2022-09-23T11:33:32.270Z,4.93
2022-09-23T11:36:06.859Z,4.70
2022-09-23T11:38:38.817Z,4.75
2022-09-23T11:41:17.631Z,4.25
2022-09-23T11:43:52.411Z,4.90
2022-09-23T11:46:29.648Z,3.92
2022-09-23T11:49:02.852Z,4.35
2022-09-23T11:51:38.193Z,3.88
2022-09-23T11:54:16.165Z,4.10
2022-09-23T11:56:51.695Z,4.40
2022-09-23T11:59:39.682Z,4.05
2022-09-23T12:02:22.956Z,4.95
2022-09-23T12:05:01.519Z,4.05
2022-09-23T12:07:43.567Z,4.75
2022-09-23T12:10:12.599Z,4.32
2022-09-23T12:12:50.217Z,4.00
2022-09-23T12:15:31.947Z,4.45
2022-09-23T12:18:33.154Z,4.93
2022-09-23T12:21:49.910Z,4.05
2022-09-23T12:24:58.411Z,4.18
2022-09-23T12:27:36.986Z,3.80
2022-09-23T12:30:08.293Z,3.80
2022-09-23T12:32:36.454Z,3.38
2022-09-23T12:35:04.732Z,3.65
2022-09-23T12:37:37.250Z,3.20
2022-09-23T12:42:45.999Z,2.17
2022-09-23T12:45:34.918Z,3.33
2022-09-23T12:48:05.209Z,3.55
2022-09-23T12:50:52.119Z,2.80
2022-09-23T12:54:10.966Z,2.90
2022-09-23T12:57:02.720Z,2.83
2022-09-23T12:59:33.361Z,2.75
2022-09-23T13:02:32.616Z,3.08
2022-09-23T13:05:28.420Z,2.80
2022-09-23T13:08:01.268Z,3.13
2022-09-23T13:10:34.049Z,2.63
2022-09-23T13:13:04.079Z,3.10
2022-09-23T13:15:35.192Z,2.85
2022-09-23T13:18:25.569Z,3.03
2022-09-23T13:20:56.990Z,2.65
2022-09-23T13:23:26.888Z,2.60
2022-09-23T13:25:58.155Z,2.67
2022-09-23T13:28:34.751Z,2.55
2022-09-23T13:31:07.856Z,3.17
2022-09-23T13:33:42.756Z,3.10
2022-09-23T13:36:14.257Z,3.58
2022-09-23T13:38:42.950Z,3.08
2022-09-23T13:41:16.308Z,2.70
2022-09-23T13:43:49.384Z,2.53
2022-09-23T13:46:20.231Z,2.85
2022-09-23T13:48:52.379Z,2.50
2022-09-23T13:51:24.936Z,2.35
2022-09-23T13:56:24.266Z,2.25
2022-09-23T13:58:54.107Z,2.05
2022-09-23T14:01:30.469Z,2.88
2022-09-23T14:03:58.716Z,2.88
2022-09-23T14:06:28.229Z,2.85
2022-09-23T14:08:57.513Z,2.58
2022-09-23T14:11:33.249Z,2.83
2022-09-23T14:14:08.047Z,2.33
2022-09-23T14:16:39.724Z,3.00
2022-09-23T14:19:08.144Z,2.30
2022-09-23T14:21:37.455Z,2.78
2022-09-23T14:24:24.409Z,2.40
2022-09-23T14:26:56.734Z,2.50
2022-09-23T14:29:28.698Z,2.30
2022-09-23T14:32:00.335Z,2.30
2022-09-23T14:34:42.980Z,2.50
2022-09-23T14:37:42.921Z,2.17
2022-09-23T14:40:15.768Z,2.30
2022-09-23T14:42:47.307Z,2.55
2022-09-23T14:45:20.720Z,1.90
2022-09-23T14:47:51.134Z,2.00
2022-09-23T14:50:39.584Z,2.05
2022-09-23T14:53:33.764Z,2.42
2022-09-23T14:56:29.360Z,2.00
2022-09-23T14:58:59.336Z,1.73
2022-09-23T15:01:40.252Z,2.08
2022-09-23T15:04:14.299Z,1.95
2022-09-23T15:06:47.798Z,2.00
2022-09-23T15:09:21.717Z,2.05
2022-09-23T15:11:52.985Z,1.73
2022-09-23T15:14:37.201Z,2.15
2022-09-23T15:17:16.791Z,2.17
2022-09-23T15:19:46.650Z,2.22
2022-09-23T15:22:16.758Z,2.10
2022-09-23T15:24:46.425Z,2.42
2022-09-23T15:27:31.052Z,2.25
2022-09-23T15:30:16.106Z,2.28
2022-09-23T15:32:46.306Z,2.40
2022-09-23T15:35:16.542Z,2.25
2022-09-23T15:37:46.102Z,2.70
2022-09-23T15:40:22.917Z,2.33
2022-09-23T15:42:52.768Z,2.20
2022-09-23T15:45:22.688Z,2.50
2022-09-23T15:47:52.514Z,2.60
2022-09-23T15:50:21.059Z,2.80
2022-09-23T15:52:49.239Z,2.92
2022-09-23T15:55:22.368Z,2.50
2022-09-23T15:57:50.790Z,2.30
2022-09-23T16:00:19.358Z,3.10
2022-09-23T16:02:49.691Z,2.45
2022-09-23T16:05:30.860Z,2.72
2022-09-23T16:07:59.490Z,2.90
2022-09-23T16:10:28.124Z,3.50
2022-09-23T16:13:00.309Z,2.75
2022-09-23T16:15:31.024Z,2.80
2022-09-23T16:17:59.609Z,2.58
2022-09-23T16:20:30.808Z,2.90
2022-09-23T16:23:00.982Z,2.42
2022-09-23T16:25:32.006Z,3.05
2022-09-23T16:28:00.017Z,2.97
2022-09-23T16:30:29.998Z,3.63
2022-09-23T16:32:58.918Z,3.22
2022-09-23T16:35:30.355Z,3.75
2022-09-23T16:37:58.409Z,3.85
2022-09-23T16:40:26.586Z,3.40
2022-09-23T16:42:56.058Z,4.00
2022-09-23T16:45:24.308Z,3.25
2022-09-23T16:47:54.388Z,3.15
2022-09-23T16:50:24.381Z,3.38
2022-09-23T16:52:56.271Z,3.33
2022-09-23T16:55:27.310Z,3.88
2022-09-23T16:57:55.895Z,4.20
2022-09-23T17:00:42.041Z,4.00
2022-09-23T17:03:31.046Z,3.95
2022-09-23T17:06:02.350Z,3.17
2022-09-23T17:08:34.501Z,3.63
2022-09-23T17:11:03.207Z,3.25
2022-09-23T17:13:32.535Z,3.75
2022-09-23T17:16:01.342Z,3.42
2022-09-23T17:18:29.834Z,3.47
2022-09-23T17:20:59.415Z,3.60
2022-09-23T17:23:28.486Z,3.40
2022-09-23T17:25:58.212Z,3.22
2022-09-23T17:28:26.697Z,2.95
2022-09-23T17:30:58.901Z,3.20
2022-09-23T17:33:27.074Z,3.00
2022-09-23T17:35:56.901Z,2.95
2022-09-23T17:38:28.858Z,3.20
2022-09-23T17:41:01.306Z,2.50
2022-09-23T17:43:30.310Z,3.10
2022-09-23T17:46:06.717Z,3.00
2022-09-23T17:48:36.818Z,3.03
2022-09-23T17:51:07.183Z,2.70
2022-09-23T17:53:37.134Z,2.65
2022-09-23T17:56:08.593Z,3.20
2022-09-23T17:58:38.435Z,3.20
2022-09-23T18:01:09.857Z,4.18
2022-09-23T18:03:38.006Z,3.05
2022-09-23T18:06:11.251Z,2.90
2022-09-23T18:08:39.987Z,3.08
2022-09-23T18:11:21.002Z,3.63
2022-09-23T18:13:50.921Z,3.70
2022-09-23T18:16:20.019Z,3.10
2022-09-23T18:18:52.133Z,2.60
2022-09-23T18:21:20.808Z,2.95
2022-09-23T18:23:49.045Z,4.15
2022-09-23T18:26:19.828Z,5.03
2022-09-23T18:28:48.372Z,4.05
2022-09-23T18:31:17.205Z,4.28
2022-09-23T18:33:49.597Z,3.20
2022-09-23T18:36:17.670Z,3.22
2022-09-23T18:38:46.013Z,4.05
2022-09-23T18:41:14.410Z,3.67
2022-09-23T18:43:48.325Z,5.05
2022-09-23T18:46:18.566Z,4.05
2022-09-23T18:49:04.290Z,4.07
2022-09-23T18:51:35.019Z,3.75
2022-09-23T18:54:05.536Z,3.72
2022-09-23T18:56:37.381Z,4.68
2022-09-23T18:59:08.784Z,4.43
2022-09-23T19:01:37.100Z,4.60
2022-09-23T19:04:06.910Z,4.93
2022-09-23T19:06:35.973Z,4.80
2022-09-23T19:09:06.717Z,4.25
2022-09-23T19:11:36.723Z,3.78
2022-09-23T19:14:10.726Z,4.03
2022-09-23T19:16:40.312Z,3.58
2022-09-23T19:19:09.621Z,3.53
2022-09-23T19:21:38.195Z,3.40
2022-09-23T19:24:10.980Z,3.50
2022-09-23T19:26:41.208Z,3.38
2022-09-23T19:29:15.178Z,2.60
2022-09-23T19:31:43.606Z,3.30
2022-09-23T19:34:15.620Z,3.55
2022-09-23T19:36:45.665Z,5.60
2022-09-23T19:39:18.428Z,7.90
2022-09-23T19:44:16.689Z,9.95
2022-09-23T19:46:50.645Z,8.95
2022-09-23T19:49:21.416Z,8.63
2022-09-23T19:51:49.572Z,8.25
2022-09-23T19:54:20.794Z,7.13
2022-09-23T19:56:49.771Z,7.65
2022-09-23T19:59:19.653Z,8.50
2022-09-23T20:01:48.737Z,17.42
2022-09-23T20:04:17.357Z,14.68
2022-09-23T20:06:46.185Z,14.43
2022-09-23T20:09:14.691Z,22.98
2022-09-23T20:11:44.309Z,27.75
2022-09-23T20:14:13.610Z,24.73
2022-09-23T20:16:43.189Z,20.83
2022-09-23T20:19:13.644Z,15.93
2022-09-23T20:21:41.769Z,14.27
2022-09-23T20:24:12.165Z,12.15
2022-09-23T20:26:59.869Z,11.00
2022-09-23T20:29:27.953Z,7.40
2022-09-23T20:31:58.774Z,5.88
2022-09-23T20:34:27.484Z,5.97
2022-09-23T20:36:55.650Z,6.57
2022-09-23T20:39:23.772Z,7.72
2022-09-23T20:41:53.120Z,7.25
2022-09-23T20:44:21.262Z,7.90
2022-09-23T20:46:49.645Z,9.35
2022-09-23T20:49:19.783Z,9.60
2022-09-23T20:51:49.215Z,13.65
2022-09-23T20:54:19.340Z,17.20
2022-09-23T20:56:47.553Z,18.13
2022-09-23T20:59:17.890Z,15.00
2022-09-23T21:01:47.956Z,13.38
2022-09-23T21:04:16.301Z,12.98
2022-09-23T21:06:45.739Z,13.10
2022-09-23T21:09:13.770Z,11.05
2022-09-23T21:11:54.703Z,10.27
2022-09-23T21:14:23.096Z,9.45
2022-09-23T21:19:50.191Z,7.65
2022-09-23T21:22:22.858Z,8.25
2022-09-23T21:27:42.647Z,9.90
2022-09-23T21:30:15.545Z,10.57
2022-09-23T21:35:14.553Z,9.98
2022-09-23T21:37:44.101Z,9.48
2022-09-23T21:40:29.776Z,9.45
2022-09-23T21:43:00.770Z,10.07
2022-09-23T21:45:29.256Z,12.15
2022-09-23T21:47:58.351Z,10.00
2022-09-23T21:50:30.250Z,10.07
2022-09-23T21:53:04.683Z,9.80
2022-09-23T21:55:32.935Z,9.50
2022-09-23T21:58:01.193Z,8.23
2022-09-23T22:00:29.479Z,6.28
2022-09-23T22:02:57.703Z,6.50
2022-09-23T22:05:26.987Z,5.03
2022-09-23T22:07:55.107Z,4.07
2022-09-23T22:10:27.027Z,3.50
2022-09-23T22:12:55.110Z,3.53
2022-09-23T22:15:23.629Z,2.75
2022-09-23T22:17:52.586Z,3.20
2022-09-23T22:20:21.029Z,3.13
2022-09-23T22:22:50.291Z,2.95
2022-09-23T22:25:18.610Z,3.20
2022-09-23T22:28:01.842Z,2.90
2022-09-23T22:30:47.475Z,3.92
2022-09-23T22:33:16.594Z,4.85
2022-09-23T22:35:44.741Z,5.07
2022-09-23T22:38:12.792Z,5.60
2022-09-23T22:40:44.199Z,7.05
2022-09-23T22:43:14.159Z,6.45
2022-09-23T22:45:50.338Z,5.40
2022-09-23T22:48:20.124Z,4.90
2022-09-23T22:50:48.202Z,5.30
2022-09-23T22:53:16.254Z,5.07
2022-09-23T22:55:44.318Z,5.78
2022-09-23T22:58:31.127Z,6.47
2022-09-23T23:01:00.080Z,6.82
2022-09-23T23:03:28.358Z,6.57
2022-09-23T23:05:57.578Z,7.18
2022-09-23T23:08:27.228Z,6.68
2022-09-23T23:10:56.106Z,6.07
2022-09-23T23:13:31.547Z,5.78
2022-09-23T23:16:04.563Z,6.65
2022-09-23T23:18:34.097Z,6.13
2022-09-23T23:21:10.074Z,5.68
2022-09-23T23:23:40.147Z,6.80
2022-09-23T23:26:10.255Z,6.68
2022-09-23T23:28:39.967Z,6.05
2022-09-23T23:31:09.766Z,6.47
2022-09-23T23:33:38.451Z,6.80
2022-09-23T23:36:07.592Z,6.63
2022-09-23T23:38:37.017Z,5.75
2022-09-23T23:41:06.937Z,6.38
2022-09-23T23:43:35.051Z,6.18
2022-09-23T23:46:04.588Z,6.28
2022-09-23T23:48:34.547Z,5.82
2022-09-23T23:51:05.639Z,5.63
2022-09-23T23:53:36.677Z,4.75
2022-09-23T23:56:06.120Z,4.78
2022-09-23T23:58:34.585Z,4.72
